createdAt,value
2019-02-21T00:03:05.995Z,2.30
2019-02-21T00:07:24.322Z,2.70
2019-02-21T00:11:42.936Z,2.57
2019-02-21T00:16:01.070Z,2.57
2019-02-21T00:20:19.233Z,2.60
2019-02-21T00:24:39.980Z,2.30
2019-02-21T00:28:57.573Z,2.23
2019-02-21T00:33:15.603Z,2.43
2019-02-21T00:37:34.206Z,2.20
2019-02-21T00:41:52.589Z,2.40
2019-02-21T00:46:10.764Z,2.97
2019-02-21T00:50:29.045Z,2.97
2019-02-21T00:54:47.429Z,2.90
2019-02-21T00:59:06.156Z,2.23
2019-02-21T01:03:24.715Z,2.70
2019-02-21T01:07:43.546Z,2.03
2019-02-21T01:12:02.107Z,2.40
2019-02-21T01:16:20.747Z,2.00
2019-02-21T01:20:39.347Z,2.57
2019-02-21T01:24:57.941Z,2.30
2019-02-21T01:29:16.413Z,2.30
2019-02-21T01:33:34.951Z,2.50
2019-02-21T01:37:53.171Z,2.90
2019-02-21T01:42:11.321Z,3.00
2019-02-21T01:46:30.226Z,2.60
2019-02-21T01:50:48.436Z,2.97
2019-02-21T01:55:09.990Z,2.80
2019-02-21T01:59:28.129Z,2.50
2019-02-21T02:03:47.239Z,2.73
2019-02-21T02:08:05.905Z,2.60
2019-02-21T02:12:24.227Z,2.63
2019-02-21T02:16:43.331Z,2.30
2019-02-21T02:21:01.688Z,2.97
2019-02-21T02:25:20.944Z,2.47
2019-02-21T02:29:39.891Z,2.50
2019-02-21T02:33:58.070Z,2.40
2019-02-21T02:38:16.719Z,2.27
2019-02-21T02:42:35.372Z,3.30
2019-02-21T02:46:54.136Z,2.73
2019-02-21T02:51:13.477Z,2.93
2019-02-21T02:55:32.059Z,2.80
2019-02-21T02:59:50.645Z,2.50
2019-02-21T03:04:09.249Z,2.97
2019-02-21T03:08:28.462Z,2.50
2019-02-21T03:12:46.583Z,2.33
2019-02-21T03:17:04.746Z,2.40
2019-02-21T03:21:23.022Z,3.00
2019-02-21T03:25:41.035Z,2.50
2019-02-21T03:29:59.993Z,2.03
2019-02-21T03:34:20.403Z,2.63
2019-02-21T03:38:39.545Z,2.87
2019-02-21T03:42:57.970Z,2.30
2019-02-21T03:47:16.719Z,2.37
2019-02-21T03:51:34.997Z,2.97
2019-02-21T03:55:53.058Z,1.90
2019-02-21T04:00:11.442Z,2.63
2019-02-21T04:04:29.885Z,2.93
2019-02-21T04:08:48.390Z,3.00
2019-02-21T04:13:07.482Z,3.00
2019-02-21T04:17:25.798Z,2.93
2019-02-21T04:21:44.616Z,3.13
2019-02-21T04:26:02.736Z,2.67
2019-02-21T04:30:20.988Z,2.40
2019-02-21T04:34:39.251Z,2.90
2019-02-21T04:38:57.634Z,2.60
2019-02-21T04:43:16.239Z,2.70
2019-02-21T04:47:34.427Z,2.90
2019-02-21T04:51:53.007Z,2.70
2019-02-21T04:56:11.122Z,2.50
2019-02-21T05:00:29.416Z,2.60
2019-02-21T05:04:47.573Z,3.00
2019-02-21T05:09:07.498Z,2.90
2019-02-21T05:13:26.264Z,2.90
2019-02-21T05:17:44.403Z,2.93
2019-02-21T05:22:03.184Z,2.57
2019-02-21T05:26:43.598Z,2.60
2019-02-21T05:31:13.264Z,3.03
2019-02-21T05:35:42.832Z,2.37
2019-02-21T05:40:19.416Z,2.70
2019-02-21T05:44:48.491Z,2.30
2019-02-21T05:49:18.590Z,2.10
2019-02-21T05:53:46.061Z,3.20
2019-02-21T05:58:09.327Z,2.87
2019-02-21T06:02:59.332Z,2.73
2019-02-21T06:07:28.533Z,2.47
2019-02-21T06:12:11.862Z,2.10
2019-02-21T06:16:52.086Z,2.60
2019-02-21T06:21:47.895Z,2.50
2019-02-21T06:26:16.178Z,2.40
2019-02-21T06:30:56.014Z,2.63
2019-02-21T06:35:14.227Z,2.23
2019-02-21T06:39:32.667Z,2.80
2019-02-21T06:43:52.744Z,2.80
2019-02-21T06:48:10.953Z,2.30
2019-02-21T06:52:29.057Z,3.07
2019-02-21T06:56:47.380Z,2.60
2019-02-21T07:01:05.937Z,3.07
2019-02-21T07:05:25.543Z,3.10
2019-02-21T07:09:44.075Z,2.83
2019-02-21T07:14:03.485Z,3.27
2019-02-21T07:18:22.159Z,3.20
2019-02-21T07:22:41.348Z,2.70
2019-02-21T07:27:00.138Z,2.47
2019-02-21T07:31:28.034Z,2.67
2019-02-21T07:35:39.068Z,2.80
2019-02-21T07:39:58.840Z,2.50
2019-02-21T07:44:17.539Z,2.50
2019-02-21T07:48:36.605Z,2.60
2019-02-21T07:53:02.419Z,2.73
2019-02-21T07:57:16.290Z,2.43
2019-02-21T08:01:35.188Z,2.80
2019-02-21T08:05:54.069Z,2.20
2019-02-21T08:10:12.568Z,2.30
2019-02-21T08:14:30.785Z,2.60
2019-02-21T08:18:49.402Z,2.50
2019-02-21T08:23:10.895Z,3.30
2019-02-21T08:27:29.304Z,3.00
2019-02-21T08:31:49.287Z,2.70
2019-02-21T08:36:08.487Z,3.20
2019-02-21T08:40:26.560Z,3.33
2019-02-21T08:44:45.360Z,2.60
2019-02-21T08:49:03.774Z,2.90
2019-02-21T08:53:22.364Z,3.30
2019-02-21T08:57:41.422Z,2.90
2019-02-21T09:02:00.147Z,3.20
2019-02-21T09:06:20.005Z,2.20
2019-02-21T09:10:38.691Z,2.67
2019-02-21T09:14:57.391Z,2.90
2019-02-21T09:19:15.500Z,3.37
2019-02-21T09:23:34.936Z,3.07
2019-02-21T09:27:54.768Z,3.03
2019-02-21T09:32:12.871Z,3.33
2019-02-21T09:36:31.571Z,3.50
2019-02-21T09:40:51.520Z,3.20
2019-02-21T09:45:14.997Z,3.37
2019-02-21T09:49:33.141Z,3.00
2019-02-21T09:53:51.948Z,2.97
2019-02-21T09:58:09.947Z,3.83
2019-02-21T10:02:28.163Z,3.73
2019-02-21T10:06:46.369Z,3.80
2019-02-21T10:11:05.129Z,4.17
2019-02-21T10:15:23.395Z,5.27
2019-02-21T10:19:41.503Z,4.80
2019-02-21T10:24:00.054Z,4.60
2019-02-21T10:28:18.603Z,5.37
2019-02-21T10:32:36.869Z,5.37
2019-02-21T10:36:55.439Z,5.43
2019-02-21T10:41:13.591Z,5.00
2019-02-21T10:45:31.891Z,5.37
2019-02-21T10:49:50.526Z,5.47
2019-02-21T10:54:08.636Z,6.07
2019-02-21T10:58:26.998Z,5.90
2019-02-21T11:02:46.968Z,4.83
2019-02-21T11:07:05.266Z,5.30
2019-02-21T11:11:23.466Z,6.07
2019-02-21T11:15:42.228Z,5.93
2019-02-21T11:20:00.671Z,5.90
2019-02-21T11:24:22.045Z,6.17
2019-02-21T11:28:42.466Z,5.07
2019-02-21T11:33:00.644Z,5.90
2019-02-21T11:37:19.383Z,5.47
2019-02-21T11:41:37.957Z,6.20
2019-02-21T11:45:57.645Z,5.53
2019-02-21T11:50:18.491Z,5.23
2019-02-21T11:54:38.363Z,4.63
2019-02-21T11:58:56.864Z,5.30
2019-02-21T12:03:15.453Z,5.70
2019-02-21T12:07:33.605Z,4.23
2019-02-21T12:11:52.725Z,4.27
2019-02-21T12:16:11.103Z,4.27
2019-02-21T12:20:29.451Z,4.40
2019-02-21T12:24:49.006Z,4.40
2019-02-21T12:29:07.153Z,4.63
2019-02-21T12:33:25.898Z,4.23
2019-02-21T12:37:44.201Z,4.43
2019-02-21T12:42:02.313Z,3.50
2019-02-21T12:46:20.599Z,3.43
2019-02-21T12:50:44.352Z,3.80
2019-02-21T12:54:59.006Z,4.20
2019-02-21T12:59:17.548Z,4.00
2019-02-21T13:03:35.773Z,4.07
2019-02-21T13:07:54.193Z,3.53
2019-02-21T13:12:12.195Z,3.40
2019-02-21T13:16:30.436Z,3.23
2019-02-21T13:20:48.606Z,3.17
2019-02-21T13:25:07.448Z,3.90
2019-02-21T13:29:25.655Z,3.47
2019-02-21T13:33:44.118Z,3.27
2019-02-21T13:38:02.759Z,4.30
2019-02-21T13:42:21.070Z,3.77
2019-02-21T13:46:41.412Z,3.23
2019-02-21T13:51:00.103Z,3.90
2019-02-21T13:55:18.254Z,3.80
2019-02-21T13:59:36.468Z,4.57
2019-02-21T14:03:56.648Z,4.40
2019-02-21T14:08:15.366Z,3.43
2019-02-21T14:12:34.597Z,3.50
2019-02-21T14:16:53.006Z,3.60
2019-02-21T14:21:11.609Z,3.53
2019-02-21T14:25:40.352Z,3.30
2019-02-21T14:29:50.640Z,2.63
2019-02-21T14:34:09.003Z,2.70
2019-02-21T14:38:28.599Z,3.10
2019-02-21T14:42:46.983Z,2.50
2019-02-21T14:47:07.925Z,5.50
2019-02-21T14:51:25.514Z,4.37
2019-02-21T14:55:44.472Z,3.90
2019-02-21T15:00:02.839Z,3.20
2019-02-21T15:04:21.127Z,3.13
2019-02-21T15:08:39.629Z,2.80
2019-02-21T15:12:58.057Z,4.00
2019-02-21T15:17:18.612Z,2.40
2019-02-21T15:21:37.168Z,2.97
2019-02-21T15:25:55.543Z,3.03
2019-02-21T15:30:17.567Z,3.23
2019-02-21T15:34:35.693Z,2.27
2019-02-21T15:38:56.934Z,3.43
2019-02-21T15:43:15.317Z,2.90
2019-02-21T15:47:33.968Z,3.00
2019-02-21T15:51:53.145Z,3.10
2019-02-21T15:56:11.368Z,3.10
2019-02-21T16:00:29.549Z,3.10
2019-02-21T16:04:48.114Z,2.90
2019-02-21T16:09:16.238Z,3.07
2019-02-21T16:13:29.196Z,3.10
2019-02-21T16:17:47.796Z,2.90
2019-02-21T16:22:07.143Z,2.80
2019-02-21T16:26:25.261Z,2.97
2019-02-21T16:30:43.633Z,3.10
2019-02-21T16:35:02.319Z,3.20
2019-02-21T16:39:23.560Z,2.83
2019-02-21T16:43:40.947Z,2.73
2019-02-21T16:47:59.762Z,3.13
2019-02-21T16:52:18.668Z,2.70
2019-02-21T16:56:36.806Z,2.80
2019-02-21T17:00:56.857Z,2.73
2019-02-21T17:05:15.630Z,2.40
2019-02-21T17:09:33.906Z,2.27
2019-02-21T17:13:52.484Z,1.90
2019-02-21T17:18:10.647Z,2.47
2019-02-21T17:22:29.213Z,2.20
2019-02-21T17:26:47.896Z,1.80
2019-02-21T17:31:06.457Z,2.20
2019-02-21T17:35:24.790Z,2.20
2019-02-21T17:39:42.909Z,2.43
2019-02-21T17:44:01.691Z,2.07
2019-02-21T17:48:20.722Z,2.37
2019-02-21T17:52:39.329Z,2.60
2019-02-21T17:56:57.843Z,2.40
2019-02-21T18:01:16.158Z,3.00
2019-02-21T18:05:41.334Z,2.70
2019-02-21T18:10:00.223Z,3.07
2019-02-21T18:14:18.509Z,2.60
2019-02-21T18:18:36.613Z,2.90
2019-02-21T18:22:54.730Z,2.90
2019-02-21T18:27:13.012Z,2.50
2019-02-21T18:31:32.419Z,2.97
2019-02-21T18:35:50.684Z,3.90
2019-02-21T18:40:17.281Z,3.40
2019-02-21T18:44:31.718Z,3.47
2019-02-21T18:48:50.377Z,3.80
2019-02-21T18:53:08.689Z,3.07
2019-02-21T18:57:26.926Z,3.70
2019-02-21T19:01:47.784Z,3.40
2019-02-21T19:06:06.763Z,3.47
2019-02-21T19:10:25.630Z,2.90
2019-02-21T19:14:44.031Z,3.10
2019-02-21T19:19:02.712Z,3.30
2019-02-21T19:23:21.211Z,2.97
2019-02-21T19:27:40.226Z,2.40
2019-02-21T19:31:58.774Z,2.70
2019-02-21T19:36:16.955Z,2.57
2019-02-21T19:40:35.547Z,2.13
2019-02-21T19:44:54.177Z,2.27
2019-02-21T19:49:12.279Z,2.67
2019-02-21T19:53:31.917Z,2.80
2019-02-21T19:57:50.322Z,2.57
2019-02-21T20:02:08.609Z,2.40
2019-02-21T20:06:26.763Z,1.67
2019-02-21T20:10:45.735Z,2.17
2019-02-21T20:15:04.174Z,1.90
2019-02-21T20:19:22.452Z,1.97
2019-02-21T20:23:41.087Z,1.90
2019-02-21T20:27:59.665Z,2.27
2019-02-21T20:32:17.831Z,2.10
2019-02-21T20:36:36.366Z,2.30
2019-02-21T20:40:54.703Z,2.43
2019-02-21T20:45:13.312Z,2.77
2019-02-21T20:49:32.662Z,2.70
2019-02-21T20:53:51.066Z,2.57
2019-02-21T20:58:11.691Z,3.20
2019-02-21T21:02:30.712Z,2.67
2019-02-21T21:06:49.891Z,2.50
2019-02-21T21:11:08.045Z,2.80
2019-02-21T21:15:26.440Z,2.90
2019-02-21T21:19:45.155Z,2.50
2019-02-21T21:24:03.448Z,2.77
2019-02-21T21:28:22.289Z,2.70
2019-02-21T21:32:40.547Z,2.53
2019-02-21T21:36:58.745Z,2.60
2019-02-21T21:41:17.440Z,2.57
2019-02-21T21:45:35.602Z,2.80
2019-02-21T21:49:54.565Z,2.67
2019-02-21T21:54:12.777Z,2.27
2019-02-21T21:58:31.449Z,3.10
2019-02-21T22:02:49.899Z,2.70
2019-02-21T22:07:08.028Z,2.50
2019-02-21T22:11:26.371Z,2.53
2019-02-21T22:15:44.757Z,2.70
2019-02-21T22:20:03.330Z,3.10
2019-02-21T22:24:22.402Z,2.80
2019-02-21T22:28:40.862Z,2.50
2019-02-21T22:32:59.036Z,2.20
2019-02-21T22:37:17.308Z,2.30
2019-02-21T22:41:35.622Z,2.40
2019-02-21T22:45:53.935Z,2.80
2019-02-21T22:50:15.340Z,2.70
2019-02-21T22:54:34.782Z,4.40
2019-02-21T22:58:53.393Z,3.80
2019-02-21T23:03:11.742Z,3.77
2019-02-21T23:07:48.623Z,4.07
2019-02-21T23:12:07.066Z,3.43
2019-02-21T23:16:25.332Z,3.20
2019-02-21T23:20:43.540Z,3.30
2019-02-21T23:25:02.094Z,3.40
2019-02-21T23:29:20.348Z,3.57
2019-02-21T23:33:44.930Z,3.50
2019-02-21T23:38:03.035Z,3.57
2019-02-21T23:42:22.696Z,3.47
2019-02-21T23:46:40.842Z,3.33
2019-02-21T23:50:59.106Z,3.67
2019-02-21T23:55:17.315Z,3.87
2019-02-21T23:59:35.658Z,2.93
